Time;durP1;ratioP1;P1;durP2;ratioP2;P2;SDS_P1;SDS_P2;PMS_P1;PMS_P2;Temp;Humidity;BMP_temperature;BMP_pressure;BME280_temperature;BME280_humidity;BME280_pressure;Samples;Min_cycle;Max_cycle;Signal;HPM_P1;HPM_P2
2023/03/17 05:41:54;;;;;;;;;;;;;;;2.85;100.00;100344.15;112824;1251;23195;-58
2023/03/17 05:44:23;;;;;;;;;;;;;;;2.87;100.00;100342.48;112828;1251;22440;-48
2023/03/17 05:46:50;;;;;;;;;;;;;;;2.87;100.00;100346.29;112454;1251;23835;-47
2023/03/17 05:49:19;;;;;;;;;;;;;;;2.86;100.00;100346.08;111461;1251;23085;-47
2023/03/17 05:51:45;;;;;;;;;;;;;;;2.86;100.00;100349.52;111751;1250;22529;-47
2023/03/17 05:54:12;;;;;;;;;;;;;;;2.86;100.00;100353.84;111473;1251;23270;-58
2023/03/17 05:56:41;;;;;;;;;;;;;;;2.85;100.00;100356.75;110670;1250;22583;-58
2023/03/17 05:59:09;;;;;;;;;;;;;;;2.85;100.00;100360.16;111852;1251;22465;-48
2023/03/17 06:01:37;;;;;;;;;;;;;;;2.85;100.00;100359.13;112517;1251;22543;-49
2023/03/17 06:04:04;;;;;;;;;;;;;;;2.85;100.00;100361.02;112693;1251;23307;-49
2023/03/17 06:06:31;;;;;;;;;;;;;;;2.83;100.00;100360.80;112495;1250;22528;-48
2023/03/17 06:08:58;;;;;;;;;;;;;;;2.86;100.00;100367.61;112633;1251;22531;-59
2023/03/17 06:11:25;;;;;;;;;;;;;;;2.88;100.00;100368.01;112556;1250;23381;-48
2023/03/17 06:13:55;;;;;;;;;;;;;;;2.88;100.00;100365.77;112784;1249;22474;-49
2023/03/17 06:16:21;;;;;;;;;;;;;;;2.87;100.00;100369.88;112414;1250;22466;-59
2023/03/17 06:18:48;;;;;;;;;;;;;;;2.86;100.00;100368.64;112397;1250;23247;-49
2023/03/17 06:21:15;;;;;;;;;;;;;;;2.86;100.00;100373.47;112741;1251;23127;-48
2023/03/17 06:23:42;;;;;;;;;;;;;;;2.86;100.00;100374.16;112694;1251;22405;-59
2023/03/17 06:26:13;;;;;;;;;;;;;;;2.87;100.00;100370.39;112614;1250;23093;-48
2023/03/17 06:28:40;;;;;;;;;;;;;;;2.85;100.00;100372.25;111483;1251;1446541;-59
2023/03/17 06:31:07;;;;;;;;;;;;;;;2.85;100.00;100371.38;112449;1250;22532;-48
2023/03/17 06:33:38;;;;;;;;;;;;;;;2.86;100.00;100371.93;112555;1250;22475;-49
2023/03/17 06:36:06;;;;;;;;;;;;;;;2.89;100.00;100370.10;112013;1251;23255;-48
2023/03/17 06:38:38;;;;;;;;;;;;;;;2.92;100.00;100366.25;112031;1250;22502;-50
2023/03/17 06:41:07;;;;;;;;;;;;;;;2.91;100.00;100375.20;112297;1250;23662;-48
2023/03/17 06:43:35;;;;;;;;;;;;;;;2.90;100.00;100370.86;112078;1250;22980;-49
2023/03/17 06:46:03;;;;;;;;;;;;;;;2.92;100.00;100366.60;112498;1251;23683;-60
2023/03/17 06:48:30;;;;;;;;;;;;;;;2.94;100.00;100370.10;112591;1250;22834;-48
2023/03/17 06:50:57;;;;;;;;;;;;;;;2.97;100.00;100369.51;112508;1251;22409;-59
2023/03/17 06:53:26;;;;;;;;;;;;;;;2.98;100.00;100372.30;112298;1250;22512;-58
2023/03/17 06:55:53;;;;;;;;;;;;;;;2.98;100.00;100372.11;112503;1251;22423;-58
2023/03/17 06:58:20;;;;;;;;;;;;;;;2.98;100.00;100368.86;112561;1249;22404;-48
2023/03/17 07:00:47;;;;;;;;;;;;;;;3.00;100.00;100369.09;112581;1251;22403;-48
2023/03/17 07:03:14;;;;;;;;;;;;;;;3.01;100.00;100374.98;112646;1250;22437;-58
2023/03/17 07:05:42;;;;;;;;;;;;;;;3.02;100.00;100378.63;112582;1250;22389;-58
2023/03/17 07:08:10;;;;;;;;;;;;;;;3.04;100.00;100380.42;112637;1250;22387;-48
2023/03/17 07:10:37;;;;;;;;;;;;;;;3.06;100.00;100380.46;110979;1250;23854;-47
2023/03/17 07:13:07;;;;;;;;;;;;;;;3.07;100.00;100378.78;112552;1250;23223;-48
2023/03/17 07:15:34;;;;;;;;;;;;;;;3.07;100.00;100379.30;112596;1250;22411;-46
2023/03/17 07:18:02;;;;;;;;;;;;;;;3.07;100.00;100379.28;112533;1250;22424;-48
2023/03/17 07:20:30;;;;;;;;;;;;;;;3.06;100.00;100377.71;112143;1251;22541;-59
2023/03/17 07:22:57;;;;;;;;;;;;;;;3.07;100.00;100380.48;111545;1251;22515;-59
2023/03/17 07:25:26;;;;;;;;;;;;;;;3.07;100.00;100388.24;111764;1251;23006;-48
2023/03/17 07:27:53;;;;;;;;;;;;;;;3.06;100.00;100394.77;112216;1251;22403;-57
2023/03/17 07:30:20;;;;;;;;;;;;;;;3.07;100.00;100397.92;112224;1250;22450;-48
2023/03/17 07:32:47;;;;;;;;;;;;;;;3.08;100.00;100398.30;112353;1250;22413;-58
2023/03/17 07:35:14;;;;;;;;;;;;;;;3.06;100.00;100399.08;112253;1251;23594;-58
2023/03/17 07:37:41;;;;;;;;;;;;;;;3.04;100.00;100401.09;112250;1250;23296;-48
2023/03/17 07:40:09;;;;;;;;;;;;;;;3.04;100.00;100399.73;112262;1250;22494;-58
2023/03/17 07:42:39;;;;;;;;;;;;;;;3.05;100.00;100398.02;112182;1250;23149;-57
2023/03/17 07:45:06;;;;;;;;;;;;;;;3.05;100.00;100403.20;112039;1250;23186;-57
2023/03/17 07:47:34;;;;;;;;;;;;;;;3.08;100.00;100405.03;112213;1248;23132;-58
2023/03/17 07:50:01;;;;;;;;;;;;;;;3.11;100.00;100407.70;112354;1250;22975;-58
2023/03/17 07:52:29;;;;;;;;;;;;;;;3.12;100.00;100404.48;112364;1250;22401;-59
2023/03/17 07:54:58;;;;;;;;;;;;;;;3.13;100.00;100406.05;112467;1251;22393;-48
2023/03/17 07:57:26;;;;;;;;;;;;;;;3.14;100.00;100404.02;112499;1250;23242;-59
2023/03/17 07:59:52;;;;;;;;;;;;;;;3.16;100.00;100403.20;112518;1251;22352;-49
2023/03/17 08:02:20;;;;;;;;;;;;;;;3.20;100.00;100407.65;112414;1250;22901;-49
2023/03/17 08:04:50;;;;;;;;;;;;;;;3.27;100.00;100405.26;112131;1250;22559;-47
2023/03/17 08:07:23;;;;;;;;;;;;;;;3.29;100.00;100409.30;111583;1248;23352;-59
2023/03/17 08:09:57;;;;;;;;;;;;;;;3.31;100.00;100413.84;111577;1250;25275;-59
2023/03/17 08:12:50;;;;;;;;;;;;;;;3.32;100.00;100412.84;111906;1250;22553;-50
2023/03/17 08:16:17;;;;;;;;;;;;;;;3.35;100.00;100415.85;112198;1250;22513;-58
2023/03/17 08:19:03;;;;;;;;;;;;;;;3.36;100.00;100419.66;112182;1250;23718;-47
2023/03/17 08:29:12;;;;;;;;;;;;;;;3.34;100.00;100429.80;112362;1250;22858;-58
2023/03/17 08:32:29;;;;;;;;;;;;;;;3.37;100.00;100431.44;112456;1250;22359;-58
2023/03/17 08:35:14;;;;;;;;;;;;;;;3.37;100.00;100430.93;111501;1251;22565;-48
2023/03/17 08:37:50;;;;;;;;;;;;;;;3.38;100.00;100431.15;111980;1250;22468;-47
2023/03/17 08:40:18;;;;;;;;;;;;;;;3.41;100.00;100430.52;112321;1250;22458;-49
2023/03/17 08:42:47;;;;;;;;;;;;;;;3.43;100.00;100431.64;112440;1250;22458;-50
2023/03/17 08:45:15;;;;;;;;;;;;;;;3.43;100.00;100432.33;112484;1251;22396;-47
2023/03/17 08:47:43;;;;;;;;;;;;;;;3.43;100.00;100430.43;112166;1250;23366;-58
2023/03/17 08:50:13;;;;;;;;;;;;;;;3.42;100.00;100431.44;112541;1250;23237;-58
2023/03/17 08:52:40;;;;;;;;;;;;;;;3.45;100.00;100433.59;112303;1250;22409;-57
2023/03/17 08:55:10;;;;;;;;;;;;;;;3.50;100.00;100437.89;111997;1250;23614;-48
2023/03/17 08:57:37;;;;;;;;;;;;;;;3.53;100.00;100439.51;112453;1250;22432;-48
2023/03/17 09:00:11;;;;;;;;;;;;;;;3.54;100.00;100440.59;112361;1250;22428;-47
2023/03/17 09:02:39;;;;;;;;;;;;;;;3.55;100.00;100444.41;112349;1250;23659;-48
2023/03/17 09:05:06;;;;;;;;;;;;;;;3.55;100.00;100446.50;112364;1250;22448;-58
2023/03/17 09:07:34;;;;;;;;;;;;;;;3.55;100.00;100449.77;112310;1250;22987;-47
2023/03/17 09:10:03;;;;;;;;;;;;;;;3.53;100.00;100445.55;112175;1250;22437;-47
2023/03/17 09:12:34;;;;;;;;;;;;;;;3.53;100.00;100450.19;112213;1250;22831;-48
2023/03/17 09:15:04;;;;;;;;;;;;;;;3.51;100.00;100448.44;112138;1250;22396;-49
2023/03/17 09:17:32;;;;;;;;;;;;;;;3.52;100.00;100449.31;112157;1250;23189;-58
2023/03/17 09:19:59;;;;;;;;;;;;;;;3.53;100.00;100451.58;112343;1250;22366;-59
2023/03/17 09:22:26;;;;;;;;;;;;;;;3.53;100.00;100446.59;112204;1250;22520;-59
2023/03/17 09:24:53;;;;;;;;;;;;;;;3.55;100.00;100448.90;112552;1250;23291;-58
2023/03/17 09:27:20;;;;;;;;;;;;;;;3.56;100.00;100449.09;112565;1250;23203;-58
2023/03/17 09:29:46;;;;;;;;;;;;;;;3.56;100.00;100453.94;112548;1250;22553;-58
2023/03/17 09:32:14;;;;;;;;;;;;;;;3.56;100.00;100452.70;112563;1250;22820;-58
2023/03/17 09:34:41;;;;;;;;;;;;;;;3.57;100.00;100456.02;112545;1250;22387;-47
2023/03/17 09:37:16;;;;;;;;;;;;;;;3.59;100.00;100458.86;112227;1250;22606;-50
2023/03/17 09:40:08;;;;;;;;;;;;;;;3.64;100.00;100458.31;112195;1250;22614;-51
2023/03/17 09:43:14;;;;;;;;;;;;;;;3.69;100.00;100465.20;111796;1250;24619;-56
2023/03/17 09:45:42;;;;;;;;;;;;;;;3.73;100.00;100466.19;112260;1250;22545;-58
2023/03/17 09:48:42;;;;;;;;;;;;;;;3.79;100.00;100467.04;112097;1250;23068;-58
2023/03/17 09:51:39;;;;;;;;;;;;;;;3.84;100.00;100466.35;111975;1250;22924;-58
2023/03/17 09:54:14;;;;;;;;;;;;;;;3.85;100.00;100470.52;112225;1250;22528;-47
2023/03/17 09:57:17;;;;;;;;;;;;;;;3.86;100.00;100473.13;112322;1250;22945;-58
2023/03/17 09:59:46;;;;;;;;;;;;;;;3.89;100.00;100475.83;112009;1250;22462;-48
2023/03/17 10:02:52;;;;;;;;;;;;;;;3.90;100.00;100472.04;111979;1250;22943;-47
2023/03/17 10:05:38;;;;;;;;;;;;;;;3.89;100.00;100474.25;112245;1250;22988;-58
2023/03/17 10:08:29;;;;;;;;;;;;;;;3.90;100.00;100474.95;112310;1250;23756;-58
2023/03/17 10:11:08;;;;;;;;;;;;;;;3.93;100.00;100475.06;112253;1250;22998;-58
2023/03/17 10:13:42;;;;;;;;;;;;;;;3.97;100.00;100475.70;112393;1250;22826;-58
2023/03/17 10:16:16;;;;;;;;;;;;;;;4.00;100.00;100480.80;112456;1250;23525;-59
2023/03/17 10:18:47;;;;;;;;;;;;;;;4.00;100.00;100476.14;112458;1250;22370;-59
2023/03/17 10:21:15;;;;;;;;;;;;;;;3.98;100.00;100477.29;111918;1250;22464;-46
2023/03/17 10:23:43;;;;;;;;;;;;;;;3.97;100.00;100480.89;112481;1250;23408;-46
2023/03/17 10:26:16;;;;;;;;;;;;;;;3.98;100.00;100483.30;112647;1250;23225;-47
2023/03/17 10:28:43;;;;;;;;;;;;;;;3.99;100.00;100480.41;111726;1250;22588;-57
2023/03/17 10:31:11;;;;;;;;;;;;;;;4.00;100.00;100484.41;112645;1250;22983;-47
2023/03/17 10:33:42;;;;;;;;;;;;;;;3.99;100.00;100486.44;112257;1250;23704;-47
2023/03/17 10:36:09;;;;;;;;;;;;;;;3.93;100.00;100488.00;111650;1250;22544;-48
2023/03/17 10:38:36;;;;;;;;;;;;;;;3.87;100.00;100489.02;112041;1250;22995;-58
2023/03/17 10:41:07;;;;;;;;;;;;;;;3.84;100.00;100486.20;112161;1250;22533;-59
2023/03/17 10:43:43;;;;;;;;;;;;;;;3.84;100.00;100484.11;112515;1250;22381;-59
2023/03/17 10:46:17;;;;;;;;;;;;;;;3.84;100.00;100482.23;112220;1250;22441;-47
2023/03/17 10:48:49;;;;;;;;;;;;;;;3.86;100.00;100477.78;112523;1250;22469;-47
2023/03/17 10:51:29;;;;;;;;;;;;;;;3.87;100.00;100483.67;112447;1250;22368;-48
2023/03/17 10:54:01;;;;;;;;;;;;;;;3.88;100.00;100482.14;112327;1250;22393;-59
2023/03/17 10:56:29;;;;;;;;;;;;;;;3.91;100.00;100480.34;112538;1250;22402;-59
2023/03/17 10:58:57;;;;;;;;;;;;;;;3.92;100.00;100482.27;112519;1250;22395;-59
2023/03/17 11:01:41;;;;;;;;;;;;;;;3.95;100.00;100485.48;112539;1250;23218;-59
2023/03/17 11:04:26;;;;;;;;;;;;;;;3.97;100.00;100481.92;112570;1250;22959;-49
2023/03/17 11:06:59;;;;;;;;;;;;;;;3.97;100.00;100477.08;112591;1250;22365;-47
2023/03/17 11:09:29;;;;;;;;;;;;;;;3.99;100.00;100477.81;112298;1250;23286;-59
2023/03/17 11:12:00;;;;;;;;;;;;;;;3.99;100.00;100476.95;112433;1250;22468;-47
2023/03/17 11:14:29;;;;;;;;;;;;;;;3.99;100.00;100478.35;112750;1250;22959;-48
2023/03/17 11:17:17;;;;;;;;;;;;;;;4.03;100.00;100480.35;112572;1250;23206;-48
2023/03/17 11:19:57;;;;;;;;;;;;;;;4.05;100.00;100479.53;112389;1250;22805;-48
2023/03/17 11:22:27;;;;;;;;;;;;;;;4.00;100.00;100481.64;112385;1250;22930;-58
2023/03/17 11:24:59;;;;;;;;;;;;;;;3.96;100.00;100484.48;112536;1250;22420;-58
2023/03/17 11:27:29;;;;;;;;;;;;;;;3.95;100.00;100486.52;112457;1250;22536;-57
2023/03/17 11:29:59;;;;;;;;;;;;;;;3.92;100.00;100487.98;112479;1250;22386;-58
2023/03/17 11:32:28;;;;;;;;;;;;;;;3.91;100.00;100490.71;112471;1250;22872;-59
2023/03/17 11:34:55;;;;;;;;;;;;;;;3.92;100.00;100492.65;112345;1250;22835;-47
2023/03/17 11:37:25;;;;;;;;;;;;;;;3.94;100.00;100492.52;111988;1250;22488;-59
2023/03/17 11:39:55;;;;;;;;;;;;;;;3.94;100.00;100493.88;112411;1250;22392;-59
2023/03/17 11:42:43;;;;;;;;;;;;;;;3.91;100.00;100497.61;112444;1250;22945;-59
2023/03/17 11:45:14;;;;;;;;;;;;;;;3.91;100.00;100501.23;112579;1250;22956;-48
2023/03/17 11:47:41;;;;;;;;;;;;;;;3.92;100.00;100505.06;112674;1250;23422;-48
2023/03/17 11:50:17;;;;;;;;;;;;;;;3.90;100.00;100506.05;112601;1251;22422;-60
2023/03/17 11:53:01;;;;;;;;;;;;;;;3.87;100.00;100503.16;112550;1250;22365;-48
